createdAt,value
2019-04-23T00:00:23.863Z,74.60
2019-04-23T00:04:48.044Z,71.30
2019-04-23T00:07:35.927Z,71.90
2019-04-23T00:10:01.260Z,72.30
2019-04-23T00:12:29.992Z,72.50
2019-04-23T00:15:05.199Z,72.70
2019-04-23T00:17:33.484Z,72.90
2019-04-23T00:19:57.135Z,73.20
2019-04-23T00:22:47.509Z,73.50
2019-04-23T00:25:33.094Z,73.90
2019-04-23T00:27:55.169Z,74.30
2019-04-23T00:30:20.339Z,74.80
2019-04-23T00:32:46.206Z,75.40
2019-04-23T00:35:18.052Z,76.20
2019-04-23T00:38:06.003Z,77.00
2019-04-23T00:40:19.017Z,77.40
2019-04-23T00:42:47.933Z,77.60
2019-04-23T00:45:19.562Z,78.00
2019-04-23T00:47:51.455Z,78.30
2019-04-23T00:50:20.757Z,78.60
2019-04-23T00:52:46.222Z,79.20
2019-04-23T00:55:26.487Z,79.80
2019-04-23T00:57:48.502Z,80.40
2019-04-23T01:00:29.582Z,81.30
2019-04-23T01:02:53.139Z,82.10
2019-04-23T01:07:50.021Z,83.00
2019-04-23T01:15:41.156Z,83.30
2019-04-23T01:18:02.170Z,83.80
2019-04-23T01:20:28.763Z,84.10
2019-04-23T01:22:42.074Z,84.30
2019-04-23T01:25:30.366Z,84.80
2019-04-23T01:28:23.467Z,85.20
2019-04-23T01:30:59.129Z,85.70
2019-04-23T01:33:29.711Z,86.30
2019-04-23T01:36:06.431Z,86.80
2019-04-23T01:38:27.934Z,87.40
2019-04-23T01:40:47.547Z,88.00
2019-04-23T01:43:23.181Z,88.60
2019-04-23T01:45:52.998Z,89.20
2019-04-23T01:48:19.976Z,90.00
2019-04-23T01:50:54.566Z,90.30
2019-04-23T01:53:27.173Z,90.50
2019-04-23T01:55:54.466Z,90.70
2019-04-23T02:00:56.331Z,91.10
2019-04-23T02:03:21.409Z,91.40
2019-04-23T02:05:55.832Z,91.70
2019-04-23T02:08:20.917Z,92.00
2019-04-23T02:13:33.981Z,92.20
2019-04-23T02:15:53.413Z,92.30
2019-04-23T02:18:21.236Z,92.40
2019-04-23T02:21:02.453Z,92.40
2019-04-23T02:23:33.179Z,92.40
2019-04-23T02:25:54.182Z,92.40
2019-04-23T02:28:33.995Z,92.50
2019-04-23T02:31:21.265Z,92.70
2019-04-23T02:33:54.193Z,92.80
2019-04-23T02:35:58.649Z,92.90
2019-04-23T02:38:46.151Z,93.00
2019-04-23T02:43:29.706Z,92.90
2019-04-23T02:48:58.318Z,93.10
2019-04-23T02:51:04.777Z,93.20
2019-04-23T02:53:44.661Z,93.30
2019-04-23T02:56:32.460Z,93.50
2019-04-23T03:01:19.348Z,93.80
2019-04-23T03:03:44.905Z,93.90
2019-04-23T03:06:08.929Z,94.10
2019-04-23T03:08:42.284Z,94.20
2019-04-23T03:11:26.015Z,94.30
2019-04-23T03:13:48.435Z,94.30
2019-04-23T03:16:21.832Z,94.40
2019-04-23T03:18:45.867Z,94.50
2019-04-23T03:21:33.402Z,94.50
2019-04-23T03:26:25.196Z,94.70
2019-04-23T03:36:14.057Z,95.30
2019-04-23T03:38:48.710Z,95.40
2019-04-23T03:41:29.593Z,95.50
2019-04-23T03:51:28.589Z,95.80
2019-04-23T03:59:03.441Z,95.90
2019-04-23T04:01:34.342Z,95.90
2019-04-23T04:06:48.093Z,95.80
2019-04-23T04:08:59.821Z,95.90
2019-04-23T04:11:21.718Z,95.90
2019-04-23T04:14:04.786Z,96.00
2019-04-23T04:18:54.234Z,96.10
2019-04-23T04:24:05.081Z,96.20
2019-04-23T04:31:40.025Z,96.10
2019-04-23T04:34:11.654Z,96.20
2019-04-23T04:36:53.577Z,96.20
2019-04-23T04:44:05.357Z,96.20
2019-04-23T04:48:56.851Z,96.20
2019-04-23T04:51:51.446Z,96.20
2019-04-23T04:56:30.327Z,96.20
2019-04-23T04:59:05.598Z,96.20
2019-04-23T05:01:23.221Z,96.20
2019-04-23T05:03:43.354Z,96.20
2019-04-23T05:16:27.925Z,96.10
2019-04-23T05:19:20.063Z,96.00
2019-04-23T05:21:41.291Z,96.00
2019-04-23T05:24:00.625Z,95.90
2019-04-23T05:29:11.182Z,95.80
2019-04-23T05:31:40.334Z,95.80
2019-04-23T05:34:19.596Z,95.70
2019-04-23T05:48:05.106Z,95.80
2019-04-23T05:51:55.521Z,95.50
2019-04-23T05:54:26.665Z,95.30
2019-04-23T05:56:54.220Z,95.10
2019-04-23T05:59:26.210Z,94.90
2019-04-23T06:01:58.844Z,94.60
2019-04-23T06:04:24.823Z,94.50
2019-04-23T06:07:11.135Z,94.20
2019-04-23T06:09:26.013Z,94.10
2019-04-23T06:14:29.007Z,93.70
2019-04-23T06:17:03.632Z,93.40
2019-04-23T06:19:20.798Z,93.10
2019-04-23T06:22:17.294Z,93.10
2019-04-23T06:24:29.215Z,93.00
2019-04-23T06:27:00.718Z,92.90
2019-04-23T06:29:39.317Z,92.80
2019-04-23T06:31:54.024Z,92.60
2019-04-23T06:34:31.822Z,92.50
2019-04-23T06:36:57.052Z,92.50
2019-04-23T06:39:33.230Z,92.30
2019-04-23T06:44:30.789Z,91.90
2019-04-23T06:52:08.361Z,91.10
2019-04-23T06:54:36.108Z,90.80
2019-04-23T06:57:09.018Z,90.30
2019-04-23T06:59:32.326Z,90.00
2019-04-23T07:02:06.341Z,90.00
2019-04-23T07:04:36.203Z,89.90
2019-04-23T07:07:29.739Z,89.40
2019-04-23T07:09:26.292Z,88.90
2019-04-23T07:12:07.674Z,88.80
2019-04-23T07:14:38.679Z,87.90
2019-04-23T07:17:03.805Z,87.50
2019-04-23T07:19:35.513Z,87.00
2019-04-23T07:22:14.624Z,86.80
2019-04-23T07:24:34.081Z,86.30
2019-04-23T07:27:06.963Z,85.90
2019-04-23T07:29:41.434Z,85.80
2019-04-23T07:32:05.879Z,85.60
2019-04-23T07:34:39.829Z,85.50
2019-04-23T07:37:08.788Z,85.10
2019-04-23T07:40:11.251Z,85.00
2019-04-23T07:42:29.747Z,84.10
2019-04-23T07:45:03.612Z,83.60
2019-04-23T07:47:32.157Z,83.70
2019-04-23T07:50:15.884Z,83.30
2019-04-23T07:52:40.731Z,82.90
2019-04-23T07:55:09.731Z,82.70
2019-04-23T07:57:34.989Z,82.70
2019-04-23T08:00:27.612Z,82.80
2019-04-23T08:05:18.996Z,82.80
2019-04-23T08:07:35.968Z,82.70
2019-04-23T08:10:10.420Z,82.50
2019-04-23T08:12:43.802Z,82.20
2019-04-23T08:15:07.469Z,81.70
2019-04-23T08:17:37.492Z,81.70
2019-04-23T08:20:08.050Z,81.20
2019-04-23T08:22:40.672Z,80.70
2019-04-23T08:25:12.506Z,80.90
2019-04-23T08:27:55.732Z,80.60
2019-04-23T08:30:06.428Z,80.60
2019-04-23T08:32:36.688Z,80.10
2019-04-23T08:35:16.374Z,80.20
2019-04-23T08:37:54.308Z,80.30
2019-04-23T08:40:18.524Z,80.30
2019-04-23T08:45:28.589Z,79.70
2019-04-23T08:48:09.568Z,79.50
2019-04-23T08:53:17.738Z,79.20
2019-04-23T08:55:38.766Z,78.90
2019-04-23T08:58:11.785Z,78.60
2019-04-23T09:00:47.658Z,77.70
2019-04-23T09:03:12.106Z,77.70
2019-04-23T09:05:50.572Z,76.90
2019-04-23T09:08:15.130Z,76.70
2019-04-23T09:10:40.965Z,76.90
2019-04-23T09:13:33.286Z,76.50
2019-04-23T09:15:45.033Z,76.50
2019-04-23T09:23:14.708Z,75.30
2019-04-23T09:28:16.113Z,75.00
2019-04-23T09:30:50.989Z,74.80
2019-04-23T09:33:28.265Z,75.30
2019-04-23T09:35:44.589Z,74.90
2019-04-23T09:38:39.950Z,75.00
2019-04-23T09:43:50.140Z,74.60
2019-04-23T09:46:34.858Z,73.90
2019-04-23T09:49:09.830Z,73.70
2019-04-23T09:51:38.338Z,73.20
2019-04-23T09:54:23.667Z,73.30
2019-04-23T09:56:36.135Z,72.60
2019-04-23T09:59:10.926Z,72.30
2019-04-23T10:01:43.910Z,71.50
2019-04-23T10:03:50.821Z,70.90
2019-04-23T10:06:18.314Z,70.90
2019-04-23T10:08:44.968Z,71.10
2019-04-23T10:11:09.649Z,70.80
2019-04-23T10:13:38.761Z,70.60
2019-04-23T10:16:10.291Z,69.80
2019-04-23T10:18:39.219Z,69.30
2019-04-23T10:21:07.896Z,69.00
2019-04-23T10:23:37.061Z,67.50
2019-04-23T10:26:06.171Z,67.50
2019-04-23T10:28:40.267Z,67.30
2019-04-23T10:31:09.128Z,67.00
2019-04-23T10:33:37.938Z,66.70
2019-04-23T10:36:11.287Z,66.10
2019-04-23T10:38:36.640Z,65.70
2019-04-23T10:41:06.389Z,65.10
2019-04-23T10:43:39.190Z,65.20
2019-04-23T10:46:32.960Z,65.20
2019-04-23T10:51:59.858Z,63.90
2019-04-23T10:54:39.959Z,63.70
2019-04-23T10:57:14.816Z,63.00
2019-04-23T11:02:29.539Z,62.80
2019-04-23T11:07:26.381Z,63.10
2019-04-23T11:12:32.058Z,60.80
2019-04-23T11:14:58.209Z,60.60
2019-04-23T11:17:33.015Z,60.10
2019-04-23T11:19:56.716Z,60.00
2019-04-23T11:27:28.112Z,58.20
2019-04-23T11:30:00.251Z,57.90
2019-04-23T11:37:39.261Z,56.40
2019-04-23T11:40:01.675Z,56.10
2019-04-23T11:42:29.788Z,55.30
2019-04-23T11:47:46.981Z,53.60
2019-04-23T11:50:01.530Z,53.10
2019-04-23T11:51:10.492Z,54.60
2019-04-23T12:02:40.215Z,51.40
2019-04-23T12:05:17.575Z,49.70
2019-04-23T12:07:34.758Z,48.70
2019-04-23T12:10:29.209Z,48.20
2019-04-23T12:12:53.360Z,47.70
2019-04-23T12:15:35.617Z,47.50
2019-04-23T12:20:27.076Z,46.40
2019-04-23T12:25:28.020Z,46.00
2019-04-23T12:27:41.954Z,45.60
2019-04-23T12:30:35.928Z,45.10
2019-04-23T12:35:29.564Z,44.00
2019-04-23T12:37:55.151Z,43.90
2019-04-23T12:40:33.961Z,43.70
2019-04-23T12:45:31.186Z,43.40
2019-04-23T12:53:06.633Z,42.60
2019-04-23T12:58:03.968Z,42.50
2019-04-23T13:00:30.807Z,43.50
2019-04-23T13:02:59.036Z,42.50
2019-04-23T13:05:31.819Z,42.40
2019-04-23T13:08:00.530Z,42.00
2019-04-23T13:10:47.967Z,42.20
2019-04-23T13:15:34.750Z,41.30
2019-04-23T13:18:03.467Z,41.30
2019-04-23T13:20:33.508Z,42.00
2019-04-23T13:23:08.647Z,41.70
2019-04-23T13:28:21.007Z,41.30
2019-04-23T13:30:59.015Z,41.20
2019-04-23T13:36:05.012Z,41.30
2019-04-23T13:46:03.753Z,41.00
2019-04-23T13:48:34.449Z,41.50
2019-04-23T13:50:59.930Z,41.90
2019-04-23T13:53:35.508Z,41.90
2019-04-23T13:55:58.767Z,41.60
2019-04-23T13:58:23.540Z,41.30
2019-04-23T14:06:09.473Z,40.30
2019-04-23T14:11:14.011Z,39.80
2019-04-23T14:13:44.059Z,39.40
2019-04-23T14:16:11.638Z,39.90
2019-04-23T14:21:14.262Z,39.40
2019-04-23T14:23:59.398Z,39.30
2019-04-23T14:26:16.602Z,39.10
2019-04-23T14:33:47.092Z,39.00
2019-04-23T14:36:07.573Z,39.00
2019-04-23T14:41:19.516Z,39.10
2019-04-23T14:43:48.905Z,38.90
2019-04-23T14:48:49.562Z,38.70
2019-04-23T14:54:03.201Z,38.70
2019-04-23T14:56:17.153Z,38.90
2019-04-23T14:58:50.289Z,39.30
2019-04-23T15:03:47.022Z,39.20
2019-04-23T15:08:59.875Z,39.20
2019-04-23T15:16:44.903Z,40.40
2019-04-23T15:19:02.596Z,41.00
2019-04-23T15:24:04.221Z,41.00
2019-04-23T15:27:21.806Z,41.00
2019-04-23T15:28:36.564Z,41.50
2019-04-23T15:31:28.441Z,41.80
2019-04-23T15:34:03.763Z,42.20
2019-04-23T15:39:04.120Z,43.00
2019-04-23T15:41:33.453Z,43.30
2019-04-23T15:44:03.106Z,43.70
2019-04-23T15:49:07.307Z,44.30
2019-04-23T15:53:56.444Z,44.50
2019-04-23T15:56:37.102Z,44.50
2019-04-23T16:01:29.335Z,44.60
2019-04-23T16:03:30.017Z,44.30
2019-04-23T16:05:59.531Z,44.20
2019-04-23T16:09:05.473Z,44.10
2019-04-23T16:14:13.588Z,44.50
2019-04-23T16:16:29.892Z,44.80
2019-04-23T16:19:07.715Z,44.70
2019-04-23T16:21:51.754Z,45.10
2019-04-23T16:24:13.489Z,45.50
2019-04-23T16:29:25.825Z,46.10
2019-04-23T16:31:40.153Z,46.60
2019-04-23T16:36:38.681Z,47.40
2019-04-23T16:39:11.951Z,47.70
2019-04-23T16:41:39.898Z,47.90
2019-04-23T16:44:14.223Z,48.40
2019-04-23T16:46:39.166Z,48.60
2019-04-23T16:49:29.936Z,48.80
2019-04-23T16:51:53.919Z,49.10
2019-04-23T16:54:16.149Z,49.30
2019-04-23T16:57:00.489Z,49.70
2019-04-23T16:59:16.923Z,49.40
2019-04-23T17:01:46.985Z,49.40
2019-04-23T17:04:20.071Z,49.40
2019-04-23T17:06:59.599Z,49.40
2019-04-23T17:09:21.950Z,49.30
2019-04-23T17:11:42.906Z,49.10
2019-04-23T17:14:13.475Z,48.90
2019-04-23T17:16:38.317Z,48.90
2019-04-23T17:21:44.979Z,49.20
2019-04-23T17:24:19.033Z,49.40
2019-04-23T17:26:47.999Z,49.80
2019-04-23T17:29:24.492Z,50.30
2019-04-23T17:31:39.120Z,50.70
2019-04-23T17:34:24.386Z,51.00
2019-04-23T17:42:05.229Z,52.20
2019-04-23T17:44:38.602Z,52.70
2019-04-23T17:47:13.967Z,53.20
2019-04-23T17:49:52.667Z,53.70
2019-04-23T17:52:21.856Z,54.50
2019-04-23T17:54:50.162Z,55.50
2019-04-23T18:00:11.458Z,57.70
2019-04-23T18:07:37.828Z,61.20
2019-04-23T18:10:12.795Z,63.00
2019-04-23T18:14:59.369Z,65.70
2019-04-23T18:17:30.386Z,67.40
2019-04-23T18:20:12.954Z,68.90
2019-04-23T18:22:47.115Z,70.50
2019-04-23T18:25:11.099Z,72.40
2019-04-23T18:27:47.162Z,74.30
2019-04-23T18:30:32.050Z,76.30
2019-04-23T18:35:51.209Z,80.00
2019-04-23T18:41:01.244Z,82.90
2019-04-23T18:43:20.628Z,84.80
2019-04-23T18:45:59.432Z,86.00
2019-04-23T18:48:38.991Z,87.20
2019-04-23T18:56:07.027Z,89.00
2019-04-23T18:58:44.669Z,89.50
2019-04-23T19:01:25.193Z,90.00
2019-04-23T19:09:13.621Z,90.30
2019-04-23T19:11:59.765Z,90.40
2019-04-23T19:14:30.794Z,90.60
2019-04-23T19:19:24.988Z,90.60
2019-04-23T19:24:21.813Z,90.60
2019-04-23T19:31:54.044Z,90.60
2019-04-23T19:36:59.656Z,90.80
2019-04-23T19:39:26.181Z,91.00
2019-04-23T19:42:00.166Z,91.10
2019-04-23T19:44:25.644Z,91.20
2019-04-23T19:49:35.737Z,91.50
2019-04-23T19:51:53.194Z,91.70
2019-04-23T19:54:35.432Z,92.30
2019-04-23T19:59:31.666Z,92.30
2019-04-23T20:02:00.498Z,92.60
2019-04-23T20:04:29.933Z,92.80
2019-04-23T20:12:01.017Z,93.60
2019-04-23T20:17:21.446Z,94.10
2019-04-23T20:19:31.623Z,94.30
2019-04-23T20:27:06.043Z,95.00
2019-04-23T20:29:53.831Z,95.20
2019-04-23T20:34:51.251Z,95.50
2019-04-23T20:37:05.668Z,95.70
2019-04-23T20:39:45.480Z,95.80
2019-04-23T20:42:11.934Z,95.90
2019-04-23T20:47:10.288Z,96.30
2019-04-23T20:49:48.039Z,96.30
2019-04-23T20:52:10.455Z,96.50
2019-04-23T20:57:42.829Z,96.70
2019-04-23T21:03:04.741Z,97.00
2019-04-23T21:05:09.980Z,97.20
2019-04-23T21:07:49.203Z,97.20
2019-04-23T21:10:19.945Z,97.20
2019-04-23T21:12:57.833Z,97.30
2019-04-23T21:15:12.170Z,97.40
2019-04-23T21:17:55.806Z,97.60
2019-04-23T21:20:15.354Z,97.80
2019-04-23T21:22:40.004Z,97.70
2019-04-23T21:25:14.510Z,97.60
2019-04-23T21:27:55.379Z,97.60
2019-04-23T21:30:39.812Z,97.80
2019-04-23T21:37:54.007Z,97.80
2019-04-23T21:40:40.275Z,97.90
2019-04-23T21:45:35.357Z,98.30
2019-04-23T21:50:37.381Z,98.60
2019-04-23T21:55:31.155Z,99.10
2019-04-23T21:58:17.297Z,99.30
2019-04-23T22:00:36.750Z,99.50
2019-04-23T22:03:09.899Z,99.60
2019-04-23T22:05:39.914Z,99.80
2019-04-23T22:10:32.696Z,99.90
2019-04-23T22:13:15.990Z,99.90
2019-04-23T22:18:00.632Z,99.90
2019-04-23T22:25:42.059Z,99.90
2019-04-23T22:28:05.251Z,99.90
2019-04-23T22:30:39.108Z,99.90
2019-04-23T22:35:45.675Z,99.90
2019-04-23T22:38:12.861Z,99.90
2019-04-23T22:40:34.856Z,99.90
2019-04-23T22:45:43.079Z,99.90
2019-04-23T22:48:11.630Z,99.90
2019-04-23T22:50:48.507Z,99.90
2019-04-23T22:53:08.091Z,99.90
2019-04-23T22:55:40.510Z,99.90
2019-04-23T23:00:49.912Z,99.90
2019-04-23T23:03:20.271Z,99.90
2019-04-23T23:06:10.993Z,99.90
2019-04-23T23:08:31.225Z,99.90
2019-04-23T23:11:11.855Z,99.90
2019-04-23T23:13:35.398Z,99.90
2019-04-23T23:16:01.571Z,99.90
2019-04-23T23:18:39.046Z,99.90
2019-04-23T23:20:59.559Z,99.90
2019-04-23T23:26:06.711Z,99.90
2019-04-23T23:31:08.489Z,99.90
2019-04-23T23:33:35.926Z,99.90
2019-04-23T23:36:10.718Z,99.90
2019-04-23T23:38:42.212Z,99.90
2019-04-23T23:41:20.778Z,99.90
2019-04-23T23:46:17.253Z,99.90
2019-04-23T23:51:11.465Z,99.90
2019-04-23T23:53:40.108Z,99.90
2019-04-23T23:58:48.244Z,99.90
